Terminal Aerodrome Forecast
Issued by NWS

Home | Current Version | Previous Version | Text Only | Print | Product List | Glossary Off
Versions: 1 2 3 4 5 6 7 8 9 10 11 12 13 14 15

000
FTUS43 KGRB 180500
TAFMTW
TAF
KMTW 180520Z 1806/1906 VRB04KT P6SM SKC
     FM181100 03011G18KT P6SM SKC
     FM181500 05014G22KT P6SM SCT200
     FM190100 08008KT P6SM BKN150=

USA.gov is the U.S. government's official web portal to all federal, state and local government web resources and services.